createdAt,value
2016-10-06T14:31:10.774Z,55
2016-10-06T14:40:42.808Z,65
2016-10-06T14:42:07.870Z,45
2016-10-06T14:43:18.414Z,65
2016-10-06T14:44:28.949Z,65
2016-10-06T14:45:39.591Z,35
2016-10-06T14:46:50.125Z,35
2016-10-06T14:48:00.677Z,65
2016-10-06T14:49:11.215Z,75
2016-10-06T14:50:21.961Z,80
2016-10-06T14:51:32.752Z,35
2016-10-06T14:52:43.311Z,80
2016-10-06T14:53:53.854Z,75
2016-10-06T14:55:04.395Z,35
2016-10-06T14:56:14.943Z,25
2016-10-06T14:57:25.485Z,20
2016-10-06T14:58:36.007Z,20
2016-10-06T14:59:46.454Z,20
2016-10-06T15:00:56.902Z,20
2016-10-06T15:02:22.151Z,20
2016-10-06T15:03:32.599Z,15
2016-10-06T15:04:43.046Z,20
2016-10-06T15:05:53.508Z,20
2016-10-06T15:07:03.963Z,20
2016-10-06T15:08:14.410Z,20
2016-10-06T15:09:24.857Z,20
2016-10-06T15:10:35.200Z,15
2016-10-06T15:12:00.096Z,45
2016-10-06T15:13:10.690Z,50
2016-10-06T15:14:21.019Z,45
2016-10-06T15:15:31.346Z,40
2016-10-06T15:16:41.677Z,40
2016-10-06T15:17:52.003Z,45
2016-10-06T15:19:02.331Z,45
2016-10-06T15:20:12.661Z,45
2016-10-06T15:22:47.889Z,45
2016-10-06T15:23:58.219Z,45
2016-10-06T15:25:09.020Z,45
2016-10-06T15:26:19.348Z,45
2016-10-06T15:27:29.673Z,45
2016-10-06T15:28:40.061Z,45
2016-10-06T15:29:50.388Z,25
2016-10-06T15:31:00.710Z,40
2016-10-06T15:32:11.037Z,40
2016-10-06T15:33:21.371Z,40
2016-10-06T15:34:31.707Z,45
2016-10-06T15:35:42.287Z,45
2016-10-06T15:36:52.611Z,45
2016-10-06T15:38:02.937Z,50
2016-10-06T15:39:13.267Z,45
2016-10-06T15:40:23.592Z,45
2016-10-06T15:41:34.174Z,45
2016-10-06T15:42:44.503Z,45
2016-10-06T15:43:54.835Z,25
2016-10-06T15:45:05.163Z,40
2016-10-06T15:46:15.491Z,40
2016-10-06T15:47:26.065Z,40
2016-10-06T15:48:36.390Z,25
2016-10-06T15:49:46.712Z,20
2016-10-06T15:50:57.041Z,20
2016-10-06T15:52:07.436Z,25
2016-10-06T15:53:17.764Z,25
2016-10-06T15:54:28.092Z,25
2016-10-06T15:55:52.990Z,25
2016-10-06T15:57:03.333Z,25
2016-10-06T15:58:13.659Z,20
2016-10-06T15:59:23.985Z,20
2016-10-06T16:00:34.314Z,25
2016-10-06T16:01:59.211Z,25
2016-10-06T16:03:09.535Z,20
2016-10-06T16:04:34.431Z,20
2016-10-06T16:05:44.761Z,20
2016-10-06T16:06:55.090Z,20
2016-10-06T16:08:05.419Z,15
2016-10-06T16:09:15.746Z,10
2016-10-06T16:10:26.076Z,15
2016-10-06T16:11:36.411Z,20
2016-10-06T16:12:46.738Z,25
2016-10-06T16:13:57.066Z,30
2016-10-06T16:15:07.402Z,30
2016-10-06T16:16:17.726Z,30
2016-10-06T16:17:28.057Z,25
2016-10-06T16:18:38.380Z,25
2016-10-06T16:19:48.713Z,25
2016-10-06T16:20:59.288Z,20
2016-10-06T16:22:09.619Z,20
2016-10-06T16:23:19.944Z,20
2016-10-06T16:24:30.281Z,20
2016-10-06T16:25:40.620Z,25
2016-10-06T16:27:05.523Z,25
2016-10-06T16:28:30.420Z,35
2016-10-06T16:29:40.753Z,35
2016-10-06T16:30:51.081Z,25
2016-10-06T16:32:01.410Z,25
2016-10-06T16:33:11.744Z,40
2016-10-06T16:34:22.550Z,35
2016-10-06T16:35:32.879Z,40
2016-10-06T16:36:43.219Z,35
2016-10-06T16:37:53.559Z,30
2016-10-06T16:39:03.886Z,30
2016-10-06T16:40:14.699Z,35
2016-10-06T16:41:25.026Z,30
2016-10-06T16:42:35.364Z,30
2016-10-06T16:43:45.693Z,30
2016-10-06T16:44:56.030Z,30
2016-10-06T16:46:06.880Z,30
2016-10-06T16:47:17.210Z,25
2016-10-06T16:48:27.535Z,25
2016-10-06T16:49:37.860Z,30
2016-10-06T16:52:13.286Z,25
2016-10-06T16:53:23.734Z,20
2016-10-06T16:54:34.178Z,20
2016-10-06T16:55:44.626Z,20
2016-10-06T16:56:56.460Z,20
2016-10-06T16:58:07.090Z,25
2016-10-06T16:59:17.535Z,25
2016-10-06T17:00:27.982Z,25
2016-10-06T17:01:38.429Z,25
2016-10-06T17:02:48.879Z,15
2016-10-06T17:03:59.332Z,15
2016-10-06T17:05:09.787Z,15
2016-10-06T17:06:35.032Z,15
2016-10-06T17:07:45.485Z,15
2016-10-06T17:08:55.940Z,15
2016-10-06T17:10:06.396Z,15
2016-10-06T17:11:16.946Z,15
2016-10-06T17:12:27.393Z,15
2016-10-06T17:13:37.942Z,10
2016-10-06T17:14:48.497Z,10
2016-10-06T17:15:59.041Z,10
2016-10-06T17:17:09.833Z,15
2016-10-06T17:18:20.378Z,20
2016-10-06T17:19:30.923Z,20
2016-10-06T17:20:41.466Z,25
2016-10-06T17:21:52.006Z,35
2016-10-06T17:23:02.894Z,25
2016-10-06T17:24:13.327Z,25
2016-10-06T17:25:23.745Z,25
2016-10-06T17:26:34.184Z,25
2016-10-06T17:27:44.600Z,35
2016-10-06T17:28:55.270Z,45
2016-10-06T17:30:05.686Z,40
2016-10-06T17:31:16.105Z,35
2016-10-06T17:32:26.521Z,35
2016-10-06T17:33:36.940Z,35
2016-10-06T17:34:47.365Z,35
2016-10-06T17:35:57.784Z,30
2016-10-06T17:37:23.850Z,30
2016-10-06T17:38:34.270Z,30
2016-10-06T17:39:59.545Z,30
2016-10-06T17:41:09.960Z,30
2016-10-06T17:42:20.374Z,30
2016-10-06T17:43:30.806Z,30
2016-10-06T17:46:06.212Z,20
2016-10-06T17:47:16.649Z,20
2016-10-06T17:48:27.070Z,15
2016-10-06T17:49:37.514Z,15
2016-10-06T17:50:47.943Z,15
2016-10-06T17:51:58.386Z,20
2016-10-06T17:53:08.827Z,15
2016-10-06T17:54:19.808Z,15
2016-10-06T17:55:30.812Z,15
2016-10-06T17:56:41.296Z,10
2016-10-06T17:57:52.597Z,10
2016-10-06T17:59:03.076Z,15
2016-10-06T18:00:13.570Z,15
2016-10-06T18:01:24.064Z,30
2016-10-06T18:02:34.573Z,30
2016-10-06T18:03:45.079Z,30
2016-10-06T18:04:55.587Z,35
2016-10-06T18:06:06.560Z,35
2016-10-06T18:07:17.044Z,30
2016-10-06T18:08:27.531Z,35
2016-10-06T18:09:37.976Z,35
2016-10-06T18:10:48.399Z,35
2016-10-06T18:11:58.838Z,35
2016-10-06T18:13:09.268Z,35
2016-10-06T18:14:19.691Z,35
2016-10-06T18:15:44.759Z,35
2016-10-06T18:16:55.177Z,35
2016-10-06T18:18:05.596Z,35
2016-10-06T18:19:30.560Z,35
2016-10-06T18:20:41.077Z,25
2016-10-06T18:21:51.490Z,25
2016-10-06T18:23:01.909Z,35
2016-10-06T18:24:13.030Z,35
2016-10-06T18:25:23.452Z,35
2016-10-06T18:26:33.875Z,30
2016-10-06T18:27:44.290Z,25
2016-10-06T18:28:54.705Z,30
2016-10-06T18:30:05.125Z,20
2016-10-06T18:31:15.661Z,35
2016-10-06T18:32:26.204Z,35
2016-10-06T18:33:36.763Z,35
2016-10-06T18:34:47.485Z,25
2016-10-06T18:35:58.022Z,10
2016-10-06T18:37:08.558Z,10
2016-10-06T18:38:19.095Z,10
2016-10-06T18:39:29.634Z,10
2016-10-06T18:40:40.678Z,10
2016-10-06T18:41:51.219Z,15
2016-10-06T18:43:01.758Z,15
2016-10-06T18:44:12.404Z,20
2016-10-06T18:45:22.937Z,20
2016-10-06T18:46:33.474Z,20
2016-10-06T18:47:44.007Z,20
2016-10-06T18:48:54.547Z,15
2016-10-06T18:50:05.086Z,15
2016-10-06T18:51:15.621Z,15
2016-10-06T18:52:26.157Z,15
2016-10-06T18:53:36.694Z,15
2016-10-06T18:54:47.727Z,15
2016-10-06T18:55:58.282Z,20
2016-10-06T18:57:08.817Z,20
2016-10-06T18:58:33.880Z,35
2016-10-06T18:59:44.425Z,35
2016-10-06T19:00:54.961Z,30
2016-10-06T19:02:05.502Z,25
2016-10-06T19:03:16.041Z,30
2016-10-06T19:04:26.962Z,20
2016-10-06T19:05:37.380Z,30
2016-10-06T19:06:47.800Z,15
2016-10-06T19:07:58.211Z,15
2016-10-06T19:09:08.627Z,15
2016-10-06T19:10:33.588Z,15
2016-10-06T19:11:44.760Z,10
2016-10-06T19:14:20.157Z,10
2016-10-06T19:15:30.581Z,15
2016-10-06T19:16:41.094Z,10
2016-10-06T19:18:06.061Z,10
2016-10-06T19:19:16.480Z,10
2016-10-06T19:20:26.901Z,10
2016-10-06T19:21:37.313Z,5
2016-10-06T19:22:47.728Z,5
2016-10-06T19:23:58.150Z,5
2016-10-06T19:25:23.120Z,5
2016-10-06T19:26:48.085Z,5
2016-10-06T19:27:58.597Z,5
2016-10-06T19:29:09.409Z,0
2016-10-06T19:30:19.737Z,0
2016-10-06T19:31:30.077Z,0
2016-10-06T19:32:40.402Z,0
2016-10-06T19:33:51.204Z,0
2016-10-06T19:35:02.006Z,5
2016-10-06T19:36:12.330Z,5
2016-10-06T19:37:22.650Z,15
2016-10-06T19:38:32.974Z,5
2016-10-06T19:39:43.550Z,5
2016-10-06T19:40:53.874Z,5
2016-10-06T19:42:04.196Z,5
2016-10-06T19:43:14.520Z,5
2016-10-06T19:44:24.841Z,5
2016-10-06T19:45:35.264Z,0
2016-10-06T19:46:45.585Z,0
2016-10-06T19:47:55.908Z,0
2016-10-06T19:49:06.233Z,0
2016-10-06T19:50:16.556Z,0
2016-10-06T19:51:27.128Z,0
2016-10-06T19:52:37.458Z,0
2016-10-06T19:53:47.791Z,0
2016-10-06T19:54:58.111Z,0
2016-10-06T19:56:08.435Z,0
2016-10-06T19:57:19.010Z,0
2016-10-06T19:58:29.337Z,0
2016-10-06T19:59:39.666Z,0
2016-10-06T20:00:49.990Z,0
2016-10-06T20:02:00.311Z,0
2016-10-06T20:03:10.859Z,0
2016-10-06T20:04:20.691Z,0
2016-10-06T20:05:30.519Z,0
2016-10-06T20:06:40.343Z,0
2016-10-06T20:07:50.164Z,0
2016-10-06T20:08:59.992Z,0
2016-10-06T20:10:24.383Z,0
2016-10-06T20:11:34.211Z,0
2016-10-06T20:12:44.037Z,0
2016-10-06T20:13:53.965Z,0
2016-10-06T20:15:03.789Z,5
2016-10-06T20:16:13.616Z,5
2016-10-06T20:17:23.438Z,5
2016-10-06T20:18:33.266Z,0
2016-10-06T20:19:43.349Z,0
2016-10-06T20:20:53.175Z,0
2016-10-06T20:22:03.043Z,0
2016-10-06T20:23:12.866Z,0
2016-10-06T20:24:22.685Z,0
2016-10-06T20:25:32.608Z,0
2016-10-06T20:26:42.433Z,0
2016-10-06T20:27:52.256Z,0
2016-10-06T20:29:02.078Z,0
2016-10-06T20:30:11.903Z,0
2016-10-06T20:31:21.982Z,0
2016-10-06T20:32:31.806Z,0
2016-10-06T20:33:41.635Z,0
2016-10-06T20:34:51.476Z,0
2016-10-06T20:37:40.511Z,0
2016-10-06T20:38:50.342Z,0
2016-10-06T20:40:00.166Z,0
2016-10-06T20:41:09.990Z,0
2016-10-06T20:42:19.918Z,0
2016-10-06T20:43:29.737Z,0
2016-10-06T20:44:39.560Z,0
2016-10-06T20:45:49.393Z,0
2016-10-06T20:46:59.218Z,0
2016-10-06T20:48:09.039Z,0
2016-10-06T20:49:18.862Z,0
2016-10-06T20:50:28.684Z,0
2016-10-06T20:51:38.507Z,0
2016-10-06T20:52:48.331Z,0
2016-10-06T20:53:58.156Z,0
2016-10-06T20:55:07.978Z,0
2016-10-06T20:56:17.800Z,0
2016-10-06T20:57:27.625Z,0
2016-10-06T20:58:37.521Z,0
2016-10-06T20:59:47.414Z,0
2016-10-06T21:00:57.313Z,0
2016-10-06T21:02:07.205Z,0
2016-10-06T21:03:17.098Z,0
2016-10-06T21:04:26.998Z,0
2016-10-06T21:05:36.891Z,0
2016-10-06T21:06:46.793Z,0
2016-10-06T21:07:56.682Z,0
2016-10-06T21:09:21.126Z,0
2016-10-06T21:10:45.571Z,0
2016-10-06T21:11:55.481Z,0
2016-10-06T21:13:05.380Z,0
2016-10-06T21:14:15.291Z,0
2016-10-06T21:15:39.743Z,0
2016-10-06T21:16:49.639Z,0
2016-10-06T21:17:59.552Z,0
2016-10-06T21:19:09.450Z,0
2016-10-06T21:20:19.346Z,0
2016-10-06T21:21:29.243Z,0
2016-10-06T21:22:39.392Z,0
2016-10-06T21:23:49.290Z,0
2016-10-06T21:24:59.189Z,0
2016-10-06T21:26:09.082Z,0
2016-10-06T21:27:18.979Z,0
2016-10-06T21:28:28.872Z,0
2016-10-06T21:29:38.773Z,0
2016-10-06T21:30:48.825Z,0
2016-10-06T21:31:59.206Z,0
2016-10-06T21:33:09.100Z,0
2016-10-06T21:34:18.996Z,0
2016-10-06T21:35:28.890Z,0
2016-10-06T21:36:38.787Z,0
2016-10-06T21:38:03.233Z,0
2016-10-06T21:39:13.138Z,0
2016-10-06T21:40:23.031Z,0
2016-10-06T21:41:33.178Z,0
2016-10-06T21:42:43.073Z,0
2016-10-06T21:43:52.969Z,0
2016-10-06T21:45:02.874Z,0
2016-10-06T21:46:12.769Z,0
2016-10-06T21:47:22.670Z,0
2016-10-06T21:48:32.566Z,0
2016-10-06T21:49:42.475Z,0
2016-10-06T21:50:52.370Z,0
2016-10-06T21:52:02.265Z,0
2016-10-06T21:53:12.160Z,0
2016-10-06T21:54:36.605Z,0
2016-10-06T21:55:46.500Z,0
2016-10-06T21:57:10.988Z,0
2016-10-06T21:58:20.985Z,0
2016-10-06T21:59:30.887Z,0
2016-10-06T22:00:40.782Z,0
2016-10-06T22:01:50.680Z,0
2016-10-06T22:03:00.576Z,0
2016-10-06T22:04:25.022Z,0
2016-10-06T22:05:34.918Z,0
2016-10-06T22:06:44.819Z,0
2016-10-06T22:07:54.722Z,0
2016-10-06T22:09:04.623Z,0
2016-10-06T22:10:29.068Z,0
2016-10-06T22:11:38.968Z,0
2016-10-06T22:12:48.862Z,0
2016-10-06T22:13:58.784Z,0
2016-10-06T22:15:08.678Z,0
2016-10-06T22:16:18.576Z,0
2016-10-06T22:17:28.474Z,0
2016-10-06T22:18:38.373Z,0
2016-10-06T22:19:48.268Z,0
2016-10-06T22:20:58.412Z,0
2016-10-06T22:22:08.309Z,0
2016-10-06T22:23:18.204Z,0
2016-10-06T22:24:28.100Z,0
2016-10-06T22:25:37.999Z,0
2016-10-06T22:26:48.091Z,0
2016-10-06T22:27:58.583Z,0
2016-10-06T22:29:08.574Z,0
2016-10-06T22:30:18.573Z,0
2016-10-06T22:31:28.565Z,0
2016-10-06T22:32:38.557Z,0
2016-10-06T22:33:48.550Z,0
2016-10-06T22:34:58.545Z,0
2016-10-06T22:36:08.540Z,0
2016-10-06T22:37:18.547Z,0
2016-10-06T22:38:43.064Z,0
2016-10-06T22:39:53.060Z,0
2016-10-06T22:41:03.052Z,0
2016-10-06T22:42:13.045Z,0
2016-10-06T22:43:23.039Z,0
2016-10-06T22:44:33.043Z,0
2016-10-06T22:45:43.035Z,0
2016-10-06T22:46:53.028Z,0
2016-10-06T22:48:03.025Z,0
2016-10-06T22:49:13.016Z,0
2016-10-06T22:50:23.009Z,0
2016-10-06T22:51:33.499Z,0
2016-10-06T22:52:43.493Z,0
2016-10-06T22:53:53.491Z,0
2016-10-06T22:55:03.485Z,0
2016-10-06T22:56:13.481Z,0
2016-10-06T22:57:23.477Z,0
2016-10-06T22:58:33.473Z,0
2016-10-06T22:59:43.384Z,0
2016-10-06T23:00:53.280Z,0
2016-10-06T23:02:17.726Z,0
2016-10-06T23:03:27.620Z,0
2016-10-06T23:04:37.526Z,0
2016-10-06T23:05:47.676Z,0
2016-10-06T23:06:57.576Z,0
2016-10-06T23:08:07.472Z,0
2016-10-06T23:09:17.370Z,0
2016-10-06T23:10:27.273Z,0
2016-10-06T23:11:37.181Z,0
2016-10-06T23:12:47.081Z,0
2016-10-06T23:13:56.982Z,0
2016-10-06T23:15:06.881Z,0
2016-10-06T23:16:16.781Z,0
2016-10-06T23:17:26.678Z,0
2016-10-06T23:18:36.576Z,0
2016-10-06T23:19:46.472Z,0
2016-10-06T23:20:56.371Z,0
2016-10-06T23:22:06.264Z,0
2016-10-06T23:23:16.273Z,0
2016-10-06T23:24:26.169Z,0
2016-10-06T23:25:36.067Z,0
2016-10-06T23:26:45.964Z,0
2016-10-06T23:27:55.861Z,0
2016-10-06T23:29:05.766Z,0
2016-10-06T23:30:15.672Z,0
2016-10-06T23:31:25.568Z,0
2016-10-06T23:32:35.462Z,0
2016-10-06T23:33:45.443Z,0
2016-10-06T23:34:55.438Z,0
2016-10-06T23:36:05.431Z,0
2016-10-06T23:37:15.425Z,0
2016-10-06T23:38:25.418Z,0
2016-10-06T23:39:35.408Z,0
2016-10-06T23:40:45.399Z,0
2016-10-06T23:42:09.917Z,0
2016-10-06T23:43:19.908Z,0
2016-10-06T23:44:29.902Z,0
2016-10-06T23:45:39.995Z,0
2016-10-06T23:46:49.990Z,0
2016-10-06T23:47:59.991Z,0
2016-10-06T23:49:09.987Z,0
2016-10-06T23:50:19.986Z,0
2016-10-06T23:51:30.229Z,0
2016-10-06T23:52:40.219Z,0
2016-10-06T23:53:50.209Z,0
2016-10-06T23:55:00.200Z,0
2016-10-06T23:56:10.192Z,0
2016-10-06T23:57:20.182Z,0
2016-10-06T23:58:30.095Z,0
2016-10-06T23:59:40.012Z,0
